Salt Lake City, Utah
Traffic Map
Current Weather Conditions
Salt Lake City, Utah
Broken Clouds
Broken Clouds
63°
Feels Like: 63°
Wind Chill: 63° Ceiling: 9000
Heat Index: 63° Visibility: 10mi
Dew Point: 41° Wind: 6mph
Humidity: 45% Direction: 10° (N)
Pressure: 29.95in Gusts: 0mph
Raw Report DataKSLC 301953Z 01005KT 10SM FEW050TCU SCT065 BKN090 17/05 A2995 RMK AO2 RAE1857 SLPNO CB DSNT NW TCU SE AND DSNT NE SH DSNT SW-W AND NW P0000 T01720050
Traffic Incident Summary
Active as of:
Severity:
Category:
InformationThere was an issue retrieving the traffic information for this location. Please try a different location or try again shortly.
Advertisements
Track Severe Weather on mobile